• Join FlightAware (Why Join?)
  • Login
  • US Flag 
06:42PM EST


 

Airport Tracker/Info


-or-


 

Live Flight TrackerFlight Track Log ✈ SAS4184 ✈ 31-Mar-2014 ✈ ENBR / BGO - ENVA / TRD

Flight Track Log - Related Links

Times and Time Zones

All times are in EDT time to prevent confusion due to time zone crossing. See the SAS4184 flight status page for this flight to view local times or setup timezone preferences in your user account.

Time Position Orientation Groundspeed Altitude Reporting Facility
EDT Latitude Longitude Course Direction KTS MPH feet Rate Location/Type
11:33AM 60.5969 5.7016 38° Northeast  Level Estimated
11:34AM 60.6725 5.8239 38° Northeast  Level Estimated
11:35AM 60.7480 5.9468 38° Northeast  Level Estimated
11:36AM 60.8234 6.0702 39° Northeast  Level Estimated
11:37AM 60.8986 6.1942 39° Northeast  Level Estimated
11:38AM 60.9738 6.3188 39° Northeast  Level Estimated
11:39AM 61.0488 6.4440 39° Northeast  Level Estimated
11:40AM 61.1237 6.5698 39° Northeast  Level Estimated
11:41AM 61.1985 6.6962 39° Northeast  Level Estimated
11:42AM 61.2732 6.8232 39° Northeast  Level Estimated
11:43AM 61.3478 6.9508 39° Northeast  Level Estimated
11:44AM 61.4222 7.0790 39° Northeast  Level Estimated
11:45AM 61.4965 7.2078 40° Northeast  Level Estimated
11:46AM 61.5707 7.3373 40° Northeast  Level Estimated
11:47AM 61.6448 7.4673 40° Northeast  Level Estimated
11:48AM 61.7188 7.5980 40° Northeast  Level Estimated
11:49AM 61.7926 7.7293 40° Northeast  Level Estimated
11:50AM 61.8663 7.8612 40° Northeast  Level Estimated
11:51AM 61.9399 7.9938 40° Northeast  Level Estimated
11:52AM 62.0133 8.1270 40° Northeast  Level Estimated
11:53AM 62.0866 8.2609 40° Northeast  Level Estimated
11:54AM 62.1598 8.3954 41° Northeast  Level Estimated
11:55AM 62.2329 8.5306 41° Northeast  Level Estimated
11:56AM 62.3058 8.6664 41° Northeast  Level Estimated
11:57AM 62.3786 8.8028 41° Northeast  Level Estimated
11:58AM 62.4512 8.9400 41° Northeast  Level Estimated
11:59AM 62.5238 9.0778 41° Northeast  Level Estimated
12:00PM 62.5961 9.2163 41° Northeast  Level Estimated
12:01PM 62.6684 9.3554 41° Northeast  Level Estimated
12:02PM 62.7405 9.4952 42° Northeast  Level Estimated
12:03PM 62.8125 9.6357 42° Northeast  Level Estimated
12:04PM 62.8843 9.7770 42° Northeast  Level Estimated
12:05PM 62.9560 9.9188 42° Northeast  Level Estimated
12:06PM 63.0275 10.0615 42° Northeast  Level Estimated
12:07PM 63.0989 10.2047 42° Northeast  Level Estimated
12:08PM 63.1702 10.3487 42° Northeast  Level Estimated
12:09PM 63.2413 10.4935 42° Northeast  Level Estimated
12:10PM 63.3122 10.6389 43° Northeast  Level Estimated
12:11PM 63.3831 10.7850 43° Northeast  Level Estimated
12:12PM 63.4537 10.9319 43° Northeast  Level Estimated
12:13PM 63.4576 10.9399 43° Northeast  Level Estimated
12:14PM 63.4576 10.9399 North  Level Estimated
12:15PM 63.4576 10.9399 North  Level Estimated
12:16PM 63.4576 10.9399 North  Level Estimated
12:17PM 63.4576 10.9399 North  Level Estimated
12:18PM 63.4576 10.9399 North  Level Estimated
12:19PM 63.4576 10.9399 North  Level Estimated
12:20PM 63.4576 10.9399 North  Level Estimated
12:21PM 63.4576 10.9399 North  Level Estimated